Wetterdaten: Freitag, 19.03.2010
Datum Zeit Temp. A. Feuchte A. Luftdruck Regen Wind Richtung Richtung Sonnenschein UV Solar Windben
19.03.2010 00:00 9,6 C 62 % 1015,5 hPa 0,0 mm 0,0 km/h (0 Bft) S-SO 157 0 min 0 UV-I 0 W/m 3,2 km/h (1 Bft)
19.03.2010 00:10 9,6 C 63 % 1015,4 hPa 0,0 mm 0,0 km/h (0 Bft) S-SO 157 0 min 0 UV-I 0 W/m 3,2 km/h (1 Bft)
19.03.2010 00:20 9,7 C 63 % 1015,3 hPa 0,0 mm 0,0 km/h (0 Bft) S-SO 157 0 min 0 UV-I 0 W/m 1,6 km/h (1 Bft)
19.03.2010 00:30 9,3 C 64 % 1015,2 hPa 0,0 mm 0,0 km/h (0 Bft) S-SO 157 0 min 0 UV-I 0 W/m 1,6 km/h (1 Bft)
19.03.2010 00:40 9,2 C 64 % 1015,2 hPa 0,0 mm 0,0 km/h (0 Bft) S-SO 157 0 min 0 UV-I 0 W/m 1,6 km/h (1 Bft)
19.03.2010 00:50 9,1 C 65 % 1015,2 hPa 0,0 mm 0,0 km/h (0 Bft) S-SO 157 0 min 0 UV-I 0 W/m 1,6 km/h (1 Bft)
19.03.2010 01:00 8,9 C 65 % 1015,2 hPa 0,0 mm 0,0 km/h (0 Bft) N 0 0 min 0 UV-I 0 W/m 0,0 km/h (0 Bft)
19.03.2010 01:10 8,4 C 67 % 1015,1 hPa 0,0 mm 0,0 km/h (0 Bft) S-SO 157 0 min 0 UV-I 0 W/m 1,6 km/h (1 Bft)
19.03.2010 02:10 7,2 C 71 % 1015,1 hPa 0,0 mm 0,0 km/h (0 Bft) N 0 0 min 0 UV-I 0 W/m 0,0 km/h (0 Bft)
19.03.2010 02:20 7,1 C 71 % 1015,0 hPa 0,0 mm 0,0 km/h (0 Bft) N 0 0 min 0 UV-I 0 W/m 0,0 km/h (0 Bft)
19.03.2010 02:30 7,2 C 70 % 1015,0 hPa 0,0 mm 0,0 km/h (0 Bft) S-SO 157 0 min 0 UV-I 0 W/m 1,6 km/h (1 Bft)
19.03.2010 02:40 7,8 C 63 % 1014,8 hPa 0,0 mm 0,0 km/h (0 Bft) S 180 0 min 0 UV-I 0 W/m 1,6 km/h (1 Bft)
19.03.2010 02:50 9,5 C 55 % 1014,7 hPa 0,0 mm 1,6 km/h (1 Bft) SW 225 0 min 0 UV-I 0 W/m 8,0 km/h (2 Bft)
19.03.2010 03:00 11,0 C 51 % 1014,7 hPa 0,0 mm 3,2 km/h (1 Bft) SW 225 0 min 0 UV-I 0 W/m 11,3 km/h (2 Bft)
19.03.2010 03:10 11,6 C 50 % 1014,7 hPa 0,0 mm 3,2 km/h (1 Bft) SW 225 0 min 0 UV-I 0 W/m 11,3 km/h (2 Bft)
19.03.2010 03:20 11,9 C 49 % 1014,6 hPa 0,0 mm 3,2 km/h (1 Bft) SW 225 0 min 0 UV-I 0 W/m 12,9 km/h (3 Bft)
19.03.2010 03:30 12,1 C 49 % 1014,5 hPa 0,0 mm 3,2 km/h (1 Bft) S-SW 202 0 min 0 UV-I 0 W/m 8,0 km/h (2 Bft)
19.03.2010 03:40 12,1 C 48 % 1014,6 hPa 0,0 mm 3,2 km/h (1 Bft) SW 225 0 min 0 UV-I 0 W/m 9,7 km/h (2 Bft)
19.03.2010 03:50 12,1 C 48 % 1014,5 hPa 0,0 mm 1,6 km/h (1 Bft) SW 225 0 min 0 UV-I 0 W/m 8,0 km/h (2 Bft)
19.03.2010 04:00 12,1 C 49 % 1014,5 hPa 0,0 mm 1,6 km/h (1 Bft) SW 225 0 min 0 UV-I 0 W/m 8,0 km/h (2 Bft)
19.03.2010 04:10 12,1 C 49 % 1014,5 hPa 0,0 mm 1,6 km/h (1 Bft) SW 225 0 min 0 UV-I 0 W/m 8,0 km/h (2 Bft)
19.03.2010 04:20 12,1 C 49 % 1014,6 hPa 0,0 mm 1,6 km/h (1 Bft) SW 225 0 min 0 UV-I 0 W/m 9,7 km/h (2 Bft)
19.03.2010 04:30 12,1 C 49 % 1014,6 hPa 0,0 mm 1,6 km/h (1 Bft) SW 225 0 min 0 UV-I 0 W/m 9,7 km/h (2 Bft)
19.03.2010 04:40 12,1 C 50 % 1014,8 hPa 0,0 mm 1,6 km/h (1 Bft) S-SW 202 0 min 0 UV-I 0 W/m 8,0 km/h (2 Bft)
19.03.2010 04:50 11,9 C 50 % 1014,8 hPa 0,0 mm 1,6 km/h (1 Bft) SW 225 0 min 0 UV-I 0 W/m 8,0 km/h (2 Bft)
19.03.2010 05:00 11,8 C 51 % 1014,8 hPa 0,0 mm 1,6 km/h (1 Bft) S-SW 202 0 min 0 UV-I 0 W/m 8,0 km/h (2 Bft)
19.03.2010 05:10 11,8 C 51 % 1014,9 hPa 0,0 mm 1,6 km/h (1 Bft) SW 225 0 min 0 UV-I 0 W/m 9,7 km/h (2 Bft)
19.03.2010 05:20 11,8 C 51 % 1015,0 hPa 0,0 mm 1,6 km/h (1 Bft) SW 225 0 min 0 UV-I 0 W/m 8,0 km/h (2 Bft)
19.03.2010 05:30 11,6 C 52 % 1015,1 hPa 0,0 mm 1,6 km/h (1 Bft) SW 225 0 min 0 UV-I 0 W/m 6,4 km/h (2 Bft)
19.03.2010 05:40 11,6 C 52 % 1015,2 hPa 0,0 mm 1,6 km/h (1 Bft) S-SW 202 0 min 0 UV-I 0 W/m 8,0 km/h (2 Bft)
19.03.2010 05:50 11,5 C 53 % 1015,2 hPa 0,0 mm 1,6 km/h (1 Bft) SW 225 0 min 0 UV-I 0 W/m 9,7 km/h (2 Bft)
19.03.2010 06:00 11,6 C 53 % 1015,1 hPa 0,0 mm 3,2 km/h (1 Bft) S-SW 202 0 min 0 UV-I 0 W/m 11,3 km/h (2 Bft)
19.03.2010 06:10 11,6 C 53 % 1015,1 hPa 0,0 mm 3,2 km/h (1 Bft) SW 225 0 min 0 UV-I 0 W/m 17,7 km/h (3 Bft)
19.03.2010 06:20 11,6 C 53 % 1015,2 hPa 0,0 mm 3,2 km/h (1 Bft) S-SW 202 0 min 0 UV-I 0 W/m 14,5 km/h (3 Bft)
19.03.2010 06:30 11,7 C 53 % 1015,2 hPa 0,0 mm 3,2 km/h (1 Bft) SW 225 0 min 0 UV-I 0 W/m 9,7 km/h (2 Bft)
19.03.2010 06:40 11,8 C 53 % 1015,4 hPa 0,0 mm 3,2 km/h (1 Bft) SW 225 0 min 0 UV-I 0 W/m 16,1 km/h (3 Bft)
19.03.2010 06:50 11,7 C 54 % 1015,4 hPa 0,0 mm 3,2 km/h (1 Bft) SW 225 0 min 0 UV-I 5 W/m 11,3 km/h (2 Bft)
19.03.2010 07:00 11,7 C 54 % 1015,5 hPa 0,0 mm 3,2 km/h (1 Bft) SW 225 0 min 0 UV-I 7 W/m 9,7 km/h (2 Bft)
19.03.2010 07:10 11,7 C 54 % 1015,6 hPa 0,0 mm 3,2 km/h (1 Bft) SW 225 0 min 0 UV-I 11 W/m 11,3 km/h (2 Bft)
19.03.2010 07:20 11,6 C 55 % 1015,6 hPa 0,0 mm 3,2 km/h (1 Bft) SW 225 0 min 0 UV-I 37 W/m 11,3 km/h (2 Bft)
19.03.2010 07:30 11,7 C 55 % 1015,5 hPa 0,0 mm 3,2 km/h (1 Bft) SW 225 0 min 0 UV-I 39 W/m 11,3 km/h (2 Bft)
19.03.2010 07:40 11,8 C 54 % 1015,4 hPa 0,0 mm 4,8 km/h (1 Bft) S-SW 202 0 min 0 UV-I 49 W/m 14,5 km/h (3 Bft)
19.03.2010 07:50 12,1 C 54 % 1015,4 hPa 0,0 mm 4,8 km/h (1 Bft) SW 225 0 min 0 UV-I 90 W/m 12,9 km/h (3 Bft)
19.03.2010 08:00 12,3 C 54 % 1015,5 hPa 0,0 mm 3,5 km/h (1 Bft) S-SW 199 0 min 0 UV-I 44 W/m 11,3 km/h (2 Bft)
19.03.2010 08:10 12,3 C 55 % 1015,7 hPa 0,0 mm 3,2 km/h (1 Bft) SW 225 0 min 0 UV-I 44 W/m 9,7 km/h (2 Bft)
19.03.2010 08:20 12,2 C 55 % 1015,7 hPa 0,0 mm 3,2 km/h (1 Bft) S-SW 202 0 min 0 UV-I 37 W/m 9,7 km/h (2 Bft)
19.03.2010 08:30 12,2 C 56 % 1015,8 hPa 0,0 mm 3,2 km/h (1 Bft) SW 225 0 min 0 UV-I 47 W/m 16,1 km/h (3 Bft)
19.03.2010 08:40 12,3 C 57 % 1015,9 hPa 0,0 mm 3,2 km/h (1 Bft) SW 225 0 min 0 UV-I 51 W/m 9,7 km/h (2 Bft)
19.03.2010 08:50 12,4 C 58 % 1016,1 hPa 0,0 mm 3,2 km/h (1 Bft) SW 225 0 min 0 UV-I 40 W/m 9,7 km/h (2 Bft)
19.03.2010 09:00 12,4 C 58 % 1016,1 hPa 0,0 mm 3,2 km/h (1 Bft) SW 225 0 min 0 UV-I 46 W/m 9,7 km/h (2 Bft)
19.03.2010 09:10 12,4 C 58 % 1016,1 hPa 0,0 mm 4,8 km/h (1 Bft) SW 225 0 min 0 UV-I 40 W/m 17,7 km/h (3 Bft)
19.03.2010 09:20 12,5 C 58 % 1016,2 hPa 0,0 mm 3,2 km/h (1 Bft) SW 225 0 min 1 UV-I 95 W/m 11,3 km/h (2 Bft)
19.03.2010 09:30 12,7 C 59 % 1016,2 hPa 0,0 mm 6,4 km/h (2 Bft) SW 225 0 min 1 UV-I 125 W/m 14,5 km/h (3 Bft)
19.03.2010 09:40 12,8 C 60 % 1016,3 hPa 0,0 mm 6,4 km/h (2 Bft) S-SW 202 0 min 1 UV-I 104 W/m 16,1 km/h (3 Bft)
19.03.2010 09:50 12,9 C 61 % 1016,3 hPa 0,0 mm 6,4 km/h (2 Bft) SW 225 0 min 1 UV-I 93 W/m 19,3 km/h (3 Bft)
19.03.2010 10:00 12,9 C 64 % 1016,4 hPa 0,0 mm 9,7 km/h (2 Bft) W-SW 247 0 min 1 UV-I 70 W/m 30,6 km/h (5 Bft)
19.03.2010 10:10 12,0 C 71 % 1016,5 hPa 0,0 mm 9,8 km/h (2 Bft) W-SW 239 0 min 1 UV-I 74 W/m 22,5 km/h (4 Bft)
19.03.2010 10:20 11,8 C 73 % 1016,5 hPa 0,0 mm 6,5 km/h (2 Bft) SW 233 0 min 1 UV-I 86 W/m 25,7 km/h (4 Bft)
19.03.2010 10:30 11,9 C 73 % 1016,4 hPa 0,0 mm 3,8 km/h (1 Bft) S-SW 212 0 min 1 UV-I 103 W/m 16,1 km/h (3 Bft)
19.03.2010 10:40 12,3 C 72 % 1016,4 hPa 0,0 mm 5,5 km/h (1 Bft) W-SW 249 0 min 1 UV-I 165 W/m 17,7 km/h (3 Bft)
19.03.2010 10:50 12,7 C 73 % 1016,4 hPa 0,0 mm 6,1 km/h (2 Bft) S-SW 208 0 min 1 UV-I 216 W/m 17,7 km/h (3 Bft)
19.03.2010 11:00 12,7 C 73 % 1016,5 hPa 0,0 mm 7,5 km/h (2 Bft) W-SW 241 0 min 1 UV-I 172 W/m 20,9 km/h (4 Bft)
19.03.2010 11:10 12,9 C 72 % 1016,4 hPa 0,0 mm 7,0 km/h (2 Bft) SW 221 0 min 1 UV-I 170 W/m 19,3 km/h (3 Bft)
19.03.2010 11:20 13,1 C 71 % 1016,6 hPa 0,0 mm 8,4 km/h (2 Bft) W-SW 254 0 min 1 UV-I 164 W/m 19,3 km/h (3 Bft)
19.03.2010 11:30 13,0 C 70 % 1016,6 hPa 0,0 mm 6,9 km/h (2 Bft) W-SW 250 0 min 1 UV-I 93 W/m 19,3 km/h (3 Bft)
19.03.2010 11:40 13,2 C 70 % 1016,6 hPa 0,0 mm 7,6 km/h (2 Bft) W-SW 248 0 min 1 UV-I 186 W/m 27,4 km/h (4 Bft)
19.03.2010 11:50 13,7 C 68 % 1016,4 hPa 0,0 mm 5,8 km/h (2 Bft) S 186 0 min 2 UV-I 326 W/m 17,7 km/h (3 Bft)
19.03.2010 12:00 14,3 C 65 % 1016,3 hPa 0,0 mm 6,7 km/h (2 Bft) S 190 10 min 2 UV-I 425 W/m 17,7 km/h (3 Bft)
19.03.2010 12:10 14,2 C 66 % 1016,3 hPa 0,0 mm 7,4 km/h (2 Bft) W 260 0 min 2 UV-I 226 W/m 19,3 km/h (3 Bft)
19.03.2010 12:20 14,2 C 65 % 1016,3 hPa 0,0 mm 6,6 km/h (2 Bft) SW 215 0 min 1 UV-I 194 W/m 19,3 km/h (3 Bft)
19.03.2010 12:30 14,3 C 64 % 1016,3 hPa 0,0 mm 9,1 km/h (2 Bft) W-SW 243 0 min 2 UV-I 250 W/m 24,1 km/h (4 Bft)
19.03.2010 12:40 14,4 C 63 % 1016,3 hPa 0,0 mm 10,8 km/h (2 Bft) S-SW 205 0 min 2 UV-I 220 W/m 29,0 km/h (5 Bft)
19.03.2010 12:50 14,4 C 63 % 1016,2 hPa 0,0 mm 11,0 km/h (2 Bft) W-SW 250 0 min 2 UV-I 240 W/m 29,0 km/h (5 Bft)
19.03.2010 13:00 14,6 C 62 % 1016,2 hPa 0,0 mm 8,4 km/h (2 Bft) SW 234 0 min 2 UV-I 241 W/m 25,7 km/h (4 Bft)
19.03.2010 13:10 15,0 C 61 % 1016,1 hPa 0,0 mm 11,3 km/h (2 Bft) SW 215 0 min 2 UV-I 326 W/m 29,0 km/h (5 Bft)
19.03.2010 13:20 15,0 C 61 % 1016,1 hPa 0,0 mm 13,8 km/h (3 Bft) W-SW 237 0 min 2 UV-I 287 W/m 29,0 km/h (5 Bft)
19.03.2010 13:30 15,0 C 61 % 1015,9 hPa 0,0 mm 11,3 km/h (2 Bft) W 268 0 min 2 UV-I 310 W/m 29,0 km/h (5 Bft)
19.03.2010 13:40 15,5 C 59 % 1015,8 hPa 0,0 mm 11,1 km/h (2 Bft) S-SW 200 10 min 2 UV-I 425 W/m 27,4 km/h (4 Bft)
19.03.2010 13:50 15,2 C 59 % 1015,7 hPa 0,0 mm 9,9 km/h (2 Bft) SW 231 0 min 1 UV-I 204 W/m 24,1 km/h (4 Bft)
19.03.2010 14:00 15,0 C 60 % 1015,6 hPa 0,0 mm 11,3 km/h (2 Bft) SW 227 0 min 1 UV-I 181 W/m 29,0 km/h (5 Bft)
19.03.2010 14:10 15,0 C 61 % 1015,3 hPa 0,0 mm 7,4 km/h (2 Bft) W-SW 244 0 min 1 UV-I 188 W/m 22,5 km/h (4 Bft)
19.03.2010 14:20 15,2 C 61 % 1015,2 hPa 0,0 mm 5,5 km/h (1 Bft) S-SW 209 0 min 1 UV-I 213 W/m 16,1 km/h (3 Bft)
19.03.2010 14:30 15,4 C 61 % 1015,1 hPa 0,0 mm 5,4 km/h (1 Bft) S-SW 203 0 min 1 UV-I 221 W/m 20,9 km/h (4 Bft)
19.03.2010 14:40 15,4 C 61 % 1014,9 hPa 0,0 mm 6,6 km/h (2 Bft) W-SW 249 0 min 1 UV-I 194 W/m 17,7 km/h (3 Bft)
19.03.2010 14:50 15,4 C 61 % 1014,9 hPa 0,0 mm 5,5 km/h (1 Bft) S-SW 199 0 min 1 UV-I 149 W/m 19,3 km/h (3 Bft)
19.03.2010 15:00 15,4 C 62 % 1014,9 hPa 0,0 mm 6,5 km/h (2 Bft) W-SW 244 0 min 1 UV-I 125 W/m 16,1 km/h (3 Bft)
19.03.2010 15:10 15,4 C 63 % 1014,7 hPa 0,0 mm 4,9 km/h (1 Bft) S-SW 192 0 min 1 UV-I 155 W/m 16,1 km/h (3 Bft)
19.03.2010 15:20 15,5 C 63 % 1014,7 hPa 0,0 mm 3,0 km/h (1 Bft) W-NW 290 0 min 1 UV-I 113 W/m 9,7 km/h (2 Bft)
19.03.2010 15:30 15,4 C 62 % 1014,6 hPa 0,0 mm 3,3 km/h (1 Bft) W-SW 244 0 min 1 UV-I 82 W/m 14,5 km/h (3 Bft)
19.03.2010 15:40 15,3 C 62 % 1014,7 hPa 0,0 mm 3,4 km/h (1 Bft) W-SW 246 0 min 1 UV-I 66 W/m 11,3 km/h (2 Bft)
19.03.2010 15:50 15,3 C 63 % 1014,5 hPa 0,0 mm 1,4 km/h (1 Bft) SW 229 0 min 1 UV-I 70 W/m 6,4 km/h (2 Bft)
19.03.2010 16:00 15,7 C 61 % 1014,4 hPa 0,0 mm 1,9 km/h (1 Bft) W-SW 247 0 min 1 UV-I 131 W/m 8,0 km/h (2 Bft)
19.03.2010 16:10 15,9 C 60 % 1014,3 hPa 0,0 mm 4,1 km/h (1 Bft) S-SW 210 0 min 1 UV-I 142 W/m 11,3 km/h (2 Bft)
19.03.2010 16:20 16,0 C 60 % 1014,2 hPa 0,0 mm 2,9 km/h (1 Bft) W-SW 237 0 min 1 UV-I 124 W/m 9,7 km/h (2 Bft)
19.03.2010 16:30 15,9 C 60 % 1014,1 hPa 0,0 mm 2,3 km/h (1 Bft) S-SW 213 0 min 1 UV-I 81 W/m 8,0 km/h (2 Bft)
19.03.2010 16:40 15,8 C 61 % 1014,2 hPa 0,0 mm 2,1 km/h (1 Bft) W-SW 250 0 min 0 UV-I 39 W/m 8,0 km/h (2 Bft)
19.03.2010 16:50 15,6 C 62 % 1014,2 hPa 0,0 mm 0,8 km/h (0 Bft) W-SW 242 0 min 0 UV-I 46 W/m 4,8 km/h (1 Bft)
19.03.2010 17:00 15,4 C 63 % 1014,1 hPa 0,0 mm 0,6 km/h (0 Bft) W-SW 242 0 min 0 UV-I 37 W/m 8,0 km/h (2 Bft)
19.03.2010 17:10 15,4 C 64 % 1014,0 hPa 0,0 mm 0,1 km/h (0 Bft) W-SW 242 0 min 0 UV-I 45 W/m 1,6 km/h (1 Bft)
19.03.2010 17:20 15,3 C 65 % 1014,0 hPa 0,0 mm 0,0 km/h (0 Bft) W-SW 242 0 min 0 UV-I 36 W/m 0,0 km/h (0 Bft)
19.03.2010 17:30 15,2 C 65 % 1014,0 hPa 0,0 mm 0,0 km/h (0 Bft) W-SW 242 0 min 0 UV-I 19 W/m 0,0 km/h (0 Bft)
19.03.2010 17:40 15,0 C 69 % 1013,9 hPa 0,0 mm 0,0 km/h (0 Bft) W-SW 242 0 min 0 UV-I 15 W/m 0,0 km/h (0 Bft)
19.03.2010 17:50 14,6 C 72 % 1013,9 hPa 0,0 mm 0,0 km/h (0 Bft) W-SW 242 0 min 0 UV-I 12 W/m 0,0 km/h (0 Bft)
19.03.2010 18:00 14,3 C 71 % 1013,9 hPa 0,0 mm 0,0 km/h (0 Bft) W-SW 242 0 min 0 UV-I 12 W/m 1,6 km/h (1 Bft)
19.03.2010 18:10 13,9 C 73 % 1013,8 hPa 0,0 mm 0,0 km/h (0 Bft) W-SW 242 0 min 0 UV-I 14 W/m 0,0 km/h (0 Bft)
19.03.2010 18:20 13,8 C 74 % 1013,7 hPa 0,0 mm 0,0 km/h (0 Bft) W-SW 242 0 min 0 UV-I 10 W/m 0,0 km/h (0 Bft)
19.03.2010 18:30 13,4 C 74 % 1013,7 hPa 0,0 mm 0,0 km/h (0 Bft) W-SW 242 0 min 0 UV-I 5 W/m 0,0 km/h (0 Bft)
19.03.2010 18:40 13,1 C 75 % 1013,7 hPa 0,0 mm 0,0 km/h (0 Bft) W-SW 242 0 min 0 UV-I 0 W/m 0,0 km/h (0 Bft)
19.03.2010 18:50 12,8 C 76 % 1013,7 hPa 0,0 mm 0,0 km/h (0 Bft) W-SW 242 0 min 0 UV-I 0 W/m 0,0 km/h (0 Bft)
19.03.2010 19:00 12,7 C 77 % 1013,7 hPa 0,0 mm 0,0 km/h (0 Bft) W-SW 242 0 min 0 UV-I 0 W/m 0,0 km/h (0 Bft)
19.03.2010 19:10 12,4 C 77 % 1013,6 hPa 0,0 mm 0,1 km/h (0 Bft) W-SW 245 0 min 0 UV-I 0 W/m 1,6 km/h (1 Bft)
19.03.2010 19:20 12,1 C 79 % 1013,6 hPa 0,0 mm 0,0 km/h (0 Bft) W-SW 246 0 min 0 UV-I 0 W/m 0,0 km/h (0 Bft)
19.03.2010 19:30 11,8 C 80 % 1013,7 hPa 0,0 mm 0,0 km/h (0 Bft) W-SW 245 0 min 0 UV-I 0 W/m 1,6 km/h (1 Bft)
19.03.2010 19:40 12,1 C 81 % 1013,6 hPa 0,0 mm 0,0 km/h (0 Bft) W-SW 246 0 min 0 UV-I 0 W/m 0,0 km/h (0 Bft)
19.03.2010 19:50 12,2 C 81 % 1013,6 hPa 0,0 mm 0,0 km/h (0 Bft) W-SW 246 0 min 0 UV-I 0 W/m 0,0 km/h (0 Bft)
19.03.2010 20:00 12,2 C 81 % 1013,7 hPa 0,0 mm 0,0 km/h (0 Bft) W-SW 246 0 min 0 UV-I 0 W/m 0,0 km/h (0 Bft)
19.03.2010 20:10 12,1 C 81 % 1013,6 hPa 0,0 mm 0,0 km/h (0 Bft) W-SW 246 0 min 0 UV-I 0 W/m 0,0 km/h (0 Bft)
19.03.2010 20:20 12,1 C 81 % 1013,6 hPa 0,0 mm 0,0 km/h (0 Bft) W-SW 245 0 min 0 UV-I 0 W/m 0,0 km/h (0 Bft)
19.03.2010 20:30 12,2 C 81 % 1013,6 hPa 0,0 mm 0,0 km/h (0 Bft) W-SW 246 0 min 0 UV-I 0 W/m 0,0 km/h (0 Bft)
19.03.2010 20:40 12,1 C 80 % 1013,5 hPa 0,0 mm 0,1 km/h (0 Bft) W-SW 245 0 min 0 UV-I 0 W/m 1,6 km/h (1 Bft)
19.03.2010 20:50 12,1 C 80 % 1013,4 hPa 0,0 mm 0,2 km/h (0 Bft) W-SW 244 0 min 0 UV-I 0 W/m 3,2 km/h (1 Bft)
19.03.2010 21:00 12,1 C 80 % 1013,2 hPa 0,0 mm 0,0 km/h (0 Bft) SW 225 0 min 0 UV-I 0 W/m 3,2 km/h (1 Bft)
19.03.2010 21:10 12,2 C 83 % 1013,1 hPa 0,0 mm 0,0 km/h (0 Bft) S-SO 157 0 min 0 UV-I 0 W/m 4,8 km/h (1 Bft)
19.03.2010 21:20 12,2 C 80 % 1013,1 hPa 0,0 mm 0,0 km/h (0 Bft) S-SO 157 0 min 0 UV-I 0 W/m 1,6 km/h (1 Bft)
19.03.2010 21:30 12,0 C 80 % 1013,1 hPa 0,0 mm 0,0 km/h (0 Bft) S-SO 157 0 min 0 UV-I 0 W/m 1,6 km/h (1 Bft)
19.03.2010 21:40 11,9 C 81 % 1012,9 hPa 0,0 mm 0,0 km/h (0 Bft) S-SO 157 0 min 0 UV-I 0 W/m 1,6 km/h (1 Bft)
19.03.2010 21:50 11,7 C 81 % 1012,9 hPa 0,0 mm 0,0 km/h (0 Bft) S-SO 157 0 min 0 UV-I 0 W/m 1,6 km/h (1 Bft)
19.03.2010 22:00 11,8 C 81 % 1012,7 hPa 0,0 mm 0,0 km/h (0 Bft) S-SO 157 0 min 0 UV-I 0 W/m 1,6 km/h (1 Bft)
19.03.2010 22:10 11,9 C 80 % 1012,7 hPa 0,0 mm 0,0 km/h (0 Bft) N 0 0 min 0 UV-I 0 W/m 0,0 km/h (0 Bft)
19.03.2010 22:20 11,9 C 79 % 1012,5 hPa 0,0 mm 0,0 km/h (0 Bft) S-SO 157 0 min 0 UV-I 0 W/m 1,6 km/h (1 Bft)
19.03.2010 22:30 12,0 C 79 % 1012,4 hPa 0,0 mm 0,0 km/h (0 Bft) S-SO 157 0 min 0 UV-I 0 W/m 1,6 km/h (1 Bft)
19.03.2010 22:40 12,2 C 77 % 1012,3 hPa 0,0 mm 0,0 km/h (0 Bft) S-SO 157 0 min 0 UV-I 0 W/m 3,2 km/h (1 Bft)
19.03.2010 22:50 12,3 C 76 % 1012,3 hPa 0,0 mm 0,0 km/h (0 Bft) S-SO 157 0 min 0 UV-I 0 W/m 1,6 km/h (1 Bft)
19.03.2010 23:00 12,3 C 75 % 1012,2 hPa 0,0 mm 0,0 km/h (0 Bft) S-SO 157 0 min 0 UV-I 0 W/m 1,6 km/h (1 Bft)
19.03.2010 23:10 12,2 C 75 % 1011,9 hPa 0,0 mm 0,0 km/h (0 Bft) S-SO 157 0 min 0 UV-I 0 W/m 3,2 km/h (1 Bft)
19.03.2010 23:20 12,1 C 75 % 1012,0 hPa 0,0 mm 0,0 km/h (0 Bft) S-SO 157 0 min 0 UV-I 0 W/m 3,2 km/h (1 Bft)
19.03.2010 23:30 12,3 C 74 % 1011,8 hPa 0,0 mm 0,0 km/h (0 Bft) N 0 0 min 0 UV-I 0 W/m 0,0 km/h (0 Bft)
19.03.2010 23:40 12,2 C 74 % 1011,7 hPa 0,0 mm 0,0 km/h (0 Bft) S-SO 157 0 min 0 UV-I 0 W/m 1,6 km/h (1 Bft)
19.03.2010 23:50 12,2 C 74 % 1011,6 hPa 0,0 mm 0,0 km/h (0 Bft) S-SO 157 0 min 0 UV-I 0 W/m 1,6 km/h (1 Bft)
_ Min-Zeit 02:10 03:40 23:50 - 00:00 - - - - - 01:00
Minimum _ 7,1 C 48 % 1011,6 hPa - 0,0 km/h (0 Bft) - - - - - 0,0 km/h (0 Bft)
_ Max-Zeit 16:20 21:10 11:20 00:00 13:20 - - 12:00 12:00 12:00 10:00
Maximum _ 16,0 C 83 % 1016,6 hPa 0,0 mm 13,8 km/h
W-SW (3 Bft)
- - 10 min 2 UV-I 425 W/m 30,6 km/h
W-SW (5 Bft)
Durchschnitt _ 12,7 C 65 % 1014,7 hPa #0,0 mm 3,0 km/h (1 Bft) SW - #20 min. 1 UV-I 123 W/m 9,7 km/h (2 Bft)